Hlavní strana
METAR-TAF:

METAR-TAF

Letiště :

Iaşi, Rumunsko

zeměpisná šířka: 47-10N, zeměpisná délka: 027-38E, výška: 102 m

Aktuální stav počasí

Zpráva byla vytvořena před 27 minutami, v 09:30 UTC
Východojihovýchodní vítr 14 kt
Teplota 12°C
Vlhkost vzduchu 76%
Tlak 1021 hPa
Viditelnost 10 km a více
Skoro jasno ve výšce 2300 ft
Oblačno až skoro zataženo ve výšce 2900 ft

METAR: LRIA 180930Z 11014KT 9999 FEW023 BKN029 12/08 Q1021

Čas: 11:57 (09:57 UTC)

Předpověď počasí

Zpráva byla vytvořena před 1 hodinou a 57 minutami, v 08:00 UTC
Předpověď platná od 18 v 09 UTC do 18 v 18 UTC
Východní vítr 14 kt
Viditelnost 10 km a více
Oblačno až skoro zataženo ve výšce 2500 ft
Změna
od 18 v 09 UTC do 18 v 11 UTC
Jihojihovýchodní vítr 14 kt

TAF: LRIA 180800Z 1809/1818 10014KT 9999 BKN025 BECMG 1809/1811 16014KT

Stav a předpovědi počasí z více než 4 000 letišť (zprávy METAR a TAF).

Červené a žluté tečky na mapě představují dostupné meteorologické stanice.

Když kurzor umístíte na tečku, zobrazí se název stanice.

Pak kliknutím zobrazíte stav a předpověď počasí.

Chcete-li změnit mapu, kliknutím na zelené tlačítko se znaménkem +mapu přiblížíte, kliknutím na zelené tlačítko se znaménkem – mapu oddálíte a kliknutím na zelené šipky přejdete na sousední mapy.


METAR-TAF: